Time;durP1;ratioP1;P1;durP2;ratioP2;P2;SDS_P1;SDS_P2;PMS_P1;PMS_P2;Temp;Humidity;BMP_temperature;BMP_pressure;BME280_temperature;BME280_humidity;BME280_pressure;Samples;Min_cycle;Max_cycle;Signal;HPM_P1;HPM_P2
2023/04/24 00:00:09;;;;;;;10.70;6.03;;;10.90;99.90;;;;;;5053369;28;20033;-60
2023/04/24 00:02:38;;;;;;;13.18;6.22;;;10.90;99.90;;;;;;5052018;28;20036;-60
2023/04/24 00:05:05;;;;;;;11.20;5.88;;;10.90;99.90;;;;;;5036739;28;20040;-60
2023/04/24 00:07:31;;;;;;;9.20;5.82;;;10.90;99.90;;;;;;5051792;28;20559;-60
2023/04/24 00:09:57;;;;;;;9.25;6.32;;;10.90;99.90;;;;;;5052965;28;20053;-60
2023/04/24 00:12:23;;;;;;;9.23;6.30;;;10.90;99.90;;;;;;5052620;28;20095;-60
2023/04/24 00:14:49;;;;;;;9.43;6.28;;;10.90;99.90;;;;;;5052518;28;20459;-60
2023/04/24 00:17:15;;;;;;;7.90;6.07;;;10.90;99.90;;;;;;5054209;28;20080;-60
2023/04/24 00:19:41;;;;;;;8.55;5.43;;;10.90;99.90;;;;;;5053685;28;20485;-59
2023/04/24 00:22:07;;;;;;;10.27;5.88;;;10.90;99.90;;;;;;5052520;28;20052;-60
2023/04/24 00:24:33;;;;;;;9.02;6.03;;;10.90;99.90;;;;;;5053516;28;20107;-59
2023/04/24 00:27:00;;;;;;;9.85;6.35;;;10.90;99.90;;;;;;5052830;28;20072;-60
2023/04/24 00:29:26;;;;;;;9.82;6.32;;;10.90;99.90;;;;;;5051750;28;20132;-59
2023/04/24 00:31:52;;;;;;;9.05;5.90;;;11.00;99.90;;;;;;5069543;28;20556;-60
2023/04/24 00:34:18;;;;;;;7.60;5.82;;;10.90;99.90;;;;;;5053624;28;20033;-60
2023/04/24 00:36:43;;;;;;;9.25;4.95;;;10.90;99.90;;;;;;5053069;28;20036;-60
2023/04/24 00:39:09;;;;;;;9.27;5.65;;;10.90;99.90;;;;;;5053974;28;20032;-60
2023/04/24 00:41:35;;;;;;;9.82;6.57;;;11.00;99.90;;;;;;5052389;28;20469;-60
2023/04/24 00:44:01;;;;;;;6.95;5.13;;;11.00;99.90;;;;;;5052012;28;20124;-60
2023/04/24 00:46:26;;;;;;;9.43;6.22;;;11.00;99.90;;;;;;5053240;28;20500;-60
2023/04/24 00:48:52;;;;;;;8.98;5.80;;;11.00;99.90;;;;;;5052317;28;20453;-59
2023/04/24 00:51:19;;;;;;;10.07;6.28;;;11.00;99.90;;;;;;5033588;28;20041;-60
2023/04/24 00:53:45;;;;;;;9.18;6.13;;;11.00;99.90;;;;;;5052659;28;20119;-60
2023/04/24 00:56:10;;;;;;;8.98;6.28;;;11.00;99.90;;;;;;5052676;28;20140;-60
2023/04/24 00:58:36;;;;;;;8.30;6.35;;;11.00;99.90;;;;;;5052250;28;20028;-60
2023/04/24 01:01:06;;;;;;;8.43;6.13;;;11.00;99.90;;;;;;5053704;28;20049;-60
2023/04/24 01:03:33;;;;;;;6.50;4.75;;;11.00;99.90;;;;;;5051722;28;20481;-60
2023/04/24 01:05:59;;;;;;;7.65;6.45;;;11.00;99.90;;;;;;5051523;28;20040;-60
2023/04/24 01:08:27;;;;;;;6.90;4.78;;;11.00;99.90;;;;;;5050635;28;20056;-60
2023/04/24 01:10:53;;;;;;;9.43;6.78;;;11.00;99.90;;;;;;5051484;28;20077;-60
2023/04/24 01:13:20;;;;;;;7.85;4.80;;;11.00;99.90;;;;;;5053034;28;20072;-60
2023/04/24 01:15:47;;;;;;;8.00;5.50;;;10.90;99.90;;;;;;5053356;28;20052;-60
2023/04/24 01:18:13;;;;;;;9.90;6.40;;;10.90;99.90;;;;;;5050882;28;20041;-60
2023/04/24 01:20:40;;;;;;;10.27;6.70;;;10.90;99.90;;;;;;5052635;28;20044;-60
2023/04/24 01:23:07;;;;;;;8.25;5.97;;;10.90;99.90;;;;;;5051882;28;20072;-60
2023/04/24 01:25:34;;;;;;;6.97;5.03;;;10.90;99.90;;;;;;5050236;28;20053;-60
2023/04/24 01:28:00;;;;;;;9.40;6.53;;;10.90;99.90;;;;;;5052074;28;20111;-60
2023/04/24 01:30:26;;;;;;;7.65;5.82;;;10.90;99.90;;;;;;5050992;28;20090;-60
2023/04/24 01:32:53;;;;;;;8.27;5.07;;;10.90;99.90;;;;;;5050918;28;20044;-60
2023/04/24 01:35:19;;;;;;;8.35;5.80;;;10.90;99.90;;;;;;5051196;28;20390;-60
2023/04/24 01:37:45;;;;;;;7.82;5.38;;;10.90;99.90;;;;;;5068216;28;20044;-60
2023/04/24 01:40:11;;;;;;;8.13;5.53;;;10.80;99.90;;;;;;5034028;28;20037;-60
2023/04/24 01:42:37;;;;;;;8.65;5.93;;;10.80;99.90;;;;;;5052231;28;20041;-60
2023/04/24 01:45:05;;;;;;;9.30;5.50;;;10.80;99.90;;;;;;5051514;28;20040;-60
2023/04/24 01:47:31;;;;;;;8.27;6.00;;;10.80;99.90;;;;;;5049746;28;20052;-60
2023/04/24 01:49:57;;;;;;;9.05;6.10;;;10.80;99.90;;;;;;5052780;28;20098;-60
2023/04/24 01:52:23;;;;;;;8.05;5.75;;;10.80;99.90;;;;;;5050572;28;20049;-59
2023/04/24 01:54:49;;;;;;;8.45;6.50;;;10.80;99.90;;;;;;5034041;28;20504;-60
2023/04/24 01:57:16;;;;;;;8.13;6.05;;;10.80;99.90;;;;;;5051121;28;20041;-60
2023/04/24 01:59:42;;;;;;;8.05;5.78;;;10.70;99.90;;;;;;5051197;28;20048;-59
2023/04/24 02:02:07;;;;;;;11.05;6.72;;;10.70;99.90;;;;;;5050107;28;20490;-59
2023/04/24 02:04:33;;;;;;;6.72;4.80;;;10.70;99.90;;;;;;5051688;28;20041;-60
2023/04/24 02:06:59;;;;;;;8.93;6.70;;;10.70;99.90;;;;;;5051110;28;20048;-59
2023/04/24 02:09:25;;;;;;;9.05;5.68;;;10.70;99.90;;;;;;5050987;28;20064;-60
2023/04/24 02:11:50;;;;;;;8.52;6.13;;;10.70;99.90;;;;;;5034398;28;20041;-59
2023/04/24 02:14:16;;;;;;;9.25;6.60;;;10.70;99.90;;;;;;5051063;28;20040;-60
2023/04/24 02:16:42;;;;;;;8.70;6.07;;;10.70;99.90;;;;;;5050456;28;20041;-60
2023/04/24 02:19:08;;;;;;;9.05;6.68;;;10.70;99.90;;;;;;5050905;28;20040;-60
2023/04/24 02:21:33;;;;;;;14.27;6.43;;;10.70;99.90;;;;;;5049531;28;20123;-60
2023/04/24 02:23:59;;;;;;;8.65;5.82;;;10.70;99.90;;;;;;5034673;28;20048;-60
2023/04/24 02:26:26;;;;;;;8.73;6.35;;;10.60;99.90;;;;;;5051493;28;20056;-60
2023/04/24 02:28:51;;;;;;;7.68;5.32;;;10.60;99.90;;;;;;5049999;28;20516;-60
2023/04/24 02:31:17;;;;;;;10.50;6.47;;;10.60;99.90;;;;;;5051851;28;20076;-60
2023/04/24 02:33:43;;;;;;;8.82;5.35;;;10.60;99.90;;;;;;5050576;28;20025;-59
2023/04/24 02:36:08;;;;;;;8.35;6.00;;;10.60;99.90;;;;;;5050008;28;20066;-60
2023/04/24 02:38:34;;;;;;;8.40;6.35;;;10.60;99.90;;;;;;5051441;28;20041;-60
2023/04/24 02:41:01;;;;;;;8.20;5.82;;;10.60;99.90;;;;;;5052030;28;20063;-60
2023/04/24 02:43:27;;;;;;;9.45;6.57;;;10.60;99.90;;;;;;5050479;28;20120;-60
2023/04/24 02:45:53;;;;;;;8.45;5.78;;;10.60;99.90;;;;;;5050518;28;20546;-59
2023/04/24 02:48:20;;;;;;;8.52;5.68;;;10.60;99.90;;;;;;5034063;28;20474;-60
2023/04/24 02:50:46;;;;;;;16.17;6.50;;;10.60;99.90;;;;;;5051239;28;20440;-60
2023/04/24 02:53:12;;;;;;;9.68;7.53;;;10.60;99.90;;;;;;5052087;28;20116;-60
2023/04/24 02:55:38;;;;;;;9.05;6.65;;;10.60;99.90;;;;;;5051088;28;20064;-60
2023/04/24 02:58:03;;;;;;;9.25;6.53;;;10.60;99.90;;;;;;5033226;28;20089;-59
2023/04/24 03:00:29;;;;;;;12.30;8.98;;;10.60;99.90;;;;;;5050113;28;20045;-60
2023/04/24 03:02:55;;;;;;;10.23;7.70;;;10.60;99.90;;;;;;5051863;28;20037;-60
2023/04/24 03:05:21;;;;;;;9.75;7.45;;;10.60;99.90;;;;;;5050461;28;20041;-60
2023/04/24 03:07:46;;;;;;;10.43;7.68;;;10.60;99.90;;;;;;5050873;28;20041;-60
2023/04/24 03:10:12;;;;;;;9.55;7.38;;;10.60;99.90;;;;;;5050430;28;20056;-60
2023/04/24 03:12:38;;;;;;;11.50;8.15;;;10.60;99.90;;;;;;5049948;28;20142;-60
2023/04/24 03:15:04;;;;;;;10.73;7.82;;;10.60;99.90;;;;;;5053694;28;20041;-60
2023/04/24 03:17:30;;;;;;;12.00;7.43;;;10.60;99.90;;;;;;5052886;28;20041;-60
2023/04/24 03:19:56;;;;;;;8.75;6.30;;;10.60;99.90;;;;;;5055611;28;20392;-60
2023/04/24 03:22:21;;;;;;;8.88;6.28;;;10.60;99.90;;;;;;5054896;28;20033;-60
2023/04/24 03:24:47;;;;;;;10.30;5.32;;;10.50;99.90;;;;;;5053370;28;20036;-60
2023/04/24 03:27:12;;;;;;;10.43;5.75;;;10.50;99.90;;;;;;5037442;28;20044;-60
2023/04/24 03:29:38;;;;;;;8.25;5.25;;;10.50;99.90;;;;;;5053389;28;20043;-61
2023/04/24 03:32:04;;;;;;;7.53;4.93;;;10.50;99.90;;;;;;5054527;28;20041;-60
2023/04/24 03:34:29;;;;;;;8.57;4.60;;;10.40;99.90;;;;;;5053579;28;20044;-60
2023/04/24 03:36:55;;;;;;;8.52;4.88;;;10.40;99.90;;;;;;5037419;28;20505;-60
2023/04/24 03:39:21;;;;;;;8.18;4.25;;;10.40;99.90;;;;;;5035819;28;20033;-61
2023/04/24 03:41:46;;;;;;;6.53;3.65;;;10.30;99.90;;;;;;5054980;28;20486;-61
2023/04/24 03:44:12;;;;;;;5.07;2.60;;;10.30;99.90;;;;;;5055085;28;20037;-61
2023/04/24 03:46:37;;;;;;;5.40;2.42;;;10.30;99.90;;;;;;5052372;28;20052;-61
2023/04/24 03:49:03;;;;;;;4.43;2.40;;;10.30;99.90;;;;;;5054014;28;20493;-60
2023/04/24 03:51:30;;;;;;;4.85;2.05;;;10.30;99.90;;;;;;5053041;28;20041;-60
2023/04/24 03:53:56;;;;;;;3.72;1.80;;;10.30;99.90;;;;;;5054035;28;20041;-61
2023/04/24 03:56:22;;;;;;;3.67;1.60;;;10.20;99.90;;;;;;5053127;28;20056;-61
2023/04/24 03:58:47;;;;;;;3.60;1.40;;;10.30;99.90;;;;;;5054963;28;20521;-60
2023/04/24 04:01:15;;;;;;;2.63;1.17;;;10.30;99.90;;;;;;5053832;28;20087;-61
2023/04/24 04:03:41;;;;;;;4.35;1.70;;;10.30;99.90;;;;;;5053163;28;20051;-61
2023/04/24 04:06:07;;;;;;;4.07;1.88;;;10.20;99.90;;;;;;5053279;28;20401;-61
2023/04/24 04:08:33;;;;;;;5.30;1.90;;;10.20;99.90;;;;;;5053072;28;20462;-61
2023/04/24 04:10:58;;;;;;;5.18;2.15;;;10.20;99.90;;;;;;5036586;28;20041;-61
2023/04/24 04:13:24;;;;;;;4.40;2.38;;;10.20;99.90;;;;;;5052526;28;20048;-61
2023/04/24 04:15:50;;;;;;;5.70;3.00;;;10.20;99.90;;;;;;5052430;28;20029;-60
2023/04/24 04:18:16;;;;;;;5.78;3.38;;;10.20;99.90;;;;;;5053988;28;20123;-61
2023/04/24 04:20:41;;;;;;;5.30;3.20;;;10.10;99.90;;;;;;5052078;28;20040;-60
2023/04/24 04:23:07;;;;;;;7.35;3.08;;;10.20;99.90;;;;;;5053021;28;20132;-61
2023/04/24 04:25:33;;;;;;;8.18;3.17;;;10.10;99.90;;;;;;5052264;28;20045;-61
2023/04/24 04:27:59;;;;;;;4.50;2.47;;;10.10;99.90;;;;;;5053605;28;20048;-61
2023/04/24 04:30:25;;;;;;;5.68;2.53;;;10.10;99.90;;;;;;5052027;28;20052;-61
2023/04/24 04:32:51;;;;;;;5.65;2.45;;;10.10;99.90;;;;;;5052994;28;20037;-60
2023/04/24 04:35:17;;;;;;;5.63;2.33;;;10.10;99.90;;;;;;5053098;28;20401;-60
2023/04/24 04:37:43;;;;;;;6.00;2.95;;;10.10;99.90;;;;;;5052626;28;20041;-61
2023/04/24 04:40:12;;;;;;;7.53;3.60;;;10.00;99.90;;;;;;5052615;28;20436;-61
2023/04/24 04:42:40;;;;;;;6.38;3.20;;;10.00;99.90;;;;;;5052618;28;20127;-60
2023/04/24 04:45:09;;;;;;;6.82;3.30;;;10.00;99.90;;;;;;5053873;28;20040;-60
2023/04/24 04:47:35;;;;;;;5.63;2.92;;;10.00;99.90;;;;;;5052170;28;20059;-61
2023/04/24 04:50:01;;;;;;;4.85;2.10;;;10.00;99.90;;;;;;5052030;28;20045;-61
2023/04/24 04:52:27;;;;;;;7.40;2.63;;;10.00;99.90;;;;;;5068415;28;20398;-60
2023/04/24 04:54:53;;;;;;;5.30;2.78;;;10.00;99.90;;;;;;5035838;28;20040;-61
2023/04/24 04:57:18;;;;;;;6.78;3.10;;;9.90;99.90;;;;;;5051542;28;20044;-61
2023/04/24 04:59:44;;;;;;;7.30;3.63;;;10.00;99.90;;;;;;5068599;28;20041;-61
2023/04/24 05:02:10;;;;;;;7.32;4.18;;;9.90;99.90;;;;;;5052570;28;20040;-61
2023/04/24 05:04:36;;;;;;;6.65;4.18;;;9.90;99.90;;;;;;5067435;28;20044;-61
2023/04/24 05:07:01;;;;;;;8.25;4.82;;;9.90;99.90;;;;;;5052300;28;20040;-61
2023/04/24 05:09:29;;;;;;;7.75;4.82;;;9.90;99.90;;;;;;5052623;28;20065;-61
2023/04/24 05:11:55;;;;;;;8.40;5.28;;;9.90;99.90;;;;;;5051216;28;20052;-60
2023/04/24 05:14:21;;;;;;;8.23;4.90;;;9.90;99.90;;;;;;5051325;28;20102;-61
2023/04/24 05:16:47;;;;;;;7.22;5.07;;;9.90;99.90;;;;;;5068956;28;20037;-61
2023/04/24 05:19:13;;;;;;;9.45;5.63;;;9.90;99.90;;;;;;5052593;28;20037;-61
2023/04/24 05:21:40;;;;;;;8.52;5.15;;;9.90;99.90;;;;;;5051498;28;20049;-60
2023/04/24 05:24:09;;;;;;;7.05;4.72;;;9.90;99.90;;;;;;5051161;28;20170;-60
2023/04/24 05:26:35;;;;;;;9.18;4.97;;;9.90;99.90;;;;;;5051171;28;20040;-61
2023/04/24 05:29:02;;;;;;;11.75;6.03;;;9.90;99.90;;;;;;5052800;28;20508;-60
2023/04/24 05:31:27;;;;;;;15.70;7.72;;;9.90;99.90;;;;;;5050365;28;20053;-60
2023/04/24 05:33:53;;;;;;;9.98;6.43;;;9.90;99.90;;;;;;5051697;28;20056;-60
2023/04/24 05:36:19;;;;;;;11.05;7.20;;;9.90;99.90;;;;;;5050593;28;20082;-60
2023/04/24 05:38:45;;;;;;;11.45;7.93;;;9.90;99.90;;;;;;5050948;28;20430;-60
2023/04/24 05:41:10;;;;;;;7.90;5.63;;;9.90;99.90;;;;;;5034949;28;20072;-60
2023/04/24 05:43:36;;;;;;;10.07;5.53;;;9.90;99.90;;;;;;5050592;28;20048;-60
2023/04/24 05:46:02;;;;;;;8.50;4.72;;;9.90;99.90;;;;;;5050836;28;20047;-60
2023/04/24 05:48:27;;;;;;;9.27;4.65;;;9.90;99.90;;;;;;5051969;28;20069;-61
2023/04/24 05:50:53;;;;;;;10.05;4.78;;;9.90;99.90;;;;;;5051031;28;20037;-61
2023/04/24 05:53:19;;;;;;;7.07;3.30;;;9.80;99.90;;;;;;5048509;28;20082;-60
2023/04/24 05:55:45;;;;;;;7.72;3.35;;;9.80;99.90;;;;;;5050981;28;20037;-60
2023/04/24 05:58:12;;;;;;;6.72;2.28;;;9.80;99.90;;;;;;5050538;28;20119;-60
2023/04/24 06:00:39;;;;;;;5.32;1.98;;;9.80;99.90;;;;;;5049939;28;20095;-61
2023/04/24 06:03:05;;;;;;;6.32;1.77;;;9.80;99.90;;;;;;5052556;28;20108;-61
2023/04/24 06:05:31;;;;;;;5.40;1.80;;;9.80;99.90;;;;;;5050439;28;20570;-61
2023/04/24 06:07:57;;;;;;;5.20;2.05;;;9.80;99.90;;;;;;5050181;28;20486;-61
2023/04/24 06:10:22;;;;;;;6.00;1.63;;;9.70;99.90;;;;;;5038616;28;20067;-60
2023/04/24 06:12:48;;;;;;;6.72;2.10;;;9.70;99.90;;;;;;5044455;28;20040;-60
2023/04/24 06:15:13;;;;;;;7.22;2.58;;;9.70;99.90;;;;;;5046014;28;20052;-61
2023/04/24 06:17:39;;;;;;;5.10;1.92;;;9.70;99.90;;;;;;5047615;28;20048;-60
2023/04/24 06:20:06;;;;;;;4.43;2.28;;;9.70;99.90;;;;;;5048092;28;20033;-60
2023/04/24 06:22:32;;;;;;;8.13;1.70;;;9.70;99.90;;;;;;5047009;28;20088;-60
2023/04/24 06:24:59;;;;;;;5.68;2.45;;;9.70;99.90;;;;;;5048099;28;20076;-60
2023/04/24 06:27:25;;;;;;;5.65;2.33;;;9.70;99.90;;;;;;5030171;28;20540;-61
2023/04/24 06:29:54;;;;;;;6.50;2.30;;;9.70;99.90;;;;;;5031486;28;20073;-61
2023/04/24 06:32:24;;;;;;;4.75;2.00;;;9.70;99.90;;;;;;5048769;28;20514;-60
2023/04/24 06:34:51;;;;;;;5.35;2.33;;;9.70;99.90;;;;;;5047194;28;20048;-60
2023/04/24 06:37:18;;;;;;;5.97;2.55;;;9.60;99.90;;;;;;5047567;28;20048;-61
2023/04/24 06:39:44;;;;;;;5.05;1.98;;;9.60;99.90;;;;;;5047842;28;20449;-60
2023/04/24 06:42:10;;;;;;;5.47;2.10;;;9.70;99.90;;;;;;5047205;28;20041;-60
2023/04/24 06:44:40;;;;;;;6.28;2.03;;;9.60;99.90;;;;;;5048561;28;20076;-61
2023/04/24 06:47:08;;;;;;;7.43;2.60;;;9.60;99.90;;;;;;5046014;28;20457;-61
2023/04/24 06:49:34;;;;;;;7.05;2.35;;;9.60;99.90;;;;;;5043624;28;20040;-61
2023/04/24 06:52:00;;;;;;;6.68;2.50;;;9.50;99.90;;;;;;5034383;28;20048;-61
2023/04/24 06:54:25;;;;;;;6.28;3.03;;;9.50;99.90;;;;;;5051987;28;20049;-61
2023/04/24 06:56:52;;;;;;;7.68;2.97;;;9.60;99.90;;;;;;5050628;28;20045;-61
2023/04/24 06:59:17;;;;;;;9.00;4.03;;;9.50;99.90;;;;;;5034113;28;20076;-61
2023/04/24 07:01:43;;;;;;;10.95;5.15;;;9.50;99.90;;;;;;5034832;28;20051;-60
2023/04/24 07:04:09;;;;;;;12.60;6.43;;;9.50;99.90;;;;;;5049871;28;20045;-61
2023/04/24 07:06:35;;;;;;;14.75;6.43;;;9.50;99.90;;;;;;5052173;28;20049;-60
2023/04/24 07:09:01;;;;;;;14.13;6.88;;;9.50;99.90;;;;;;5033951;28;20059;-60
2023/04/24 07:11:29;;;;;;;13.30;8.25;;;9.40;99.90;;;;;;5049704;28;20049;-60
2023/04/24 07:13:55;;;;;;;12.35;7.95;;;9.40;99.90;;;;;;5032158;28;20033;-61
2023/04/24 07:16:21;;;;;;;17.50;8.32;;;9.40;99.90;;;;;;5051651;28;20033;-61
2023/04/24 07:18:46;;;;;;;14.30;8.75;;;9.30;99.90;;;;;;5051479;28;20527;-61
2023/04/24 07:21:12;;;;;;;12.38;8.75;;;9.30;99.90;;;;;;5051750;28;20094;-61
2023/04/24 07:23:38;;;;;;;15.18;9.55;;;9.30;99.90;;;;;;5049744;28;20413;-61
2023/04/24 07:26:04;;;;;;;15.40;9.57;;;9.30;99.90;;;;;;5051979;28;20513;-61
2023/04/24 07:28:32;;;;;;;16.67;9.05;;;9.20;99.90;;;;;;5051251;28;20049;-61
2023/04/24 07:30:59;;;;;;;14.98;8.90;;;9.20;99.90;;;;;;5051351;28;20128;-61
2023/04/24 07:33:26;;;;;;;16.27;9.30;;;9.30;99.90;;;;;;5051204;28;20068;-60
2023/04/24 07:35:51;;;;;;;15.75;9.27;;;9.20;99.90;;;;;;5050433;28;20049;-61
2023/04/24 07:38:20;;;;;;;17.13;9.50;;;9.20;99.90;;;;;;5050370;28;20056;-60
2023/04/24 07:40:46;;;;;;;13.48;9.45;;;9.20;99.90;;;;;;5050291;28;20056;-60
2023/04/24 07:43:12;;;;;;;18.63;10.43;;;9.30;99.90;;;;;;5051564;28;20538;-60
2023/04/24 07:45:39;;;;;;;16.20;9.95;;;9.30;99.90;;;;;;5048636;28;20033;-60
2023/04/24 07:48:05;;;;;;;21.65;12.10;;;9.30;99.90;;;;;;5048887;28;20119;-60
2023/04/24 07:50:31;;;;;;;18.42;9.82;;;9.30;99.90;;;;;;5049679;28;20136;-61
2023/04/24 07:52:56;;;;;;;20.67;11.18;;;9.30;99.90;;;;;;5049315;28;20548;-60
2023/04/24 07:55:22;;;;;;;18.20;10.63;;;9.30;99.90;;;;;;5049661;28;20033;-60
2023/04/24 07:57:48;;;;;;;17.30;10.85;;;9.20;99.90;;;;;;5052108;28;20051;-61
2023/04/24 08:00:14;;;;;;;15.43;9.90;;;9.20;99.90;;;;;;5032959;28;20401;-61
2023/04/24 08:02:40;;;;;;;18.70;10.63;;;9.20;99.90;;;;;;5033482;28;20056;-61
2023/04/24 08:05:06;;;;;;;15.93;9.57;;;9.20;99.90;;;;;;5050212;28;20036;-61
2023/04/24 08:07:32;;;;;;;14.77;9.50;;;9.20;99.90;;;;;;5049386;28;20077;-61
2023/04/24 08:09:59;;;;;;;17.17;9.50;;;9.20;99.90;;;;;;5050417;28;20437;-61
2023/04/24 08:12:25;;;;;;;13.35;8.52;;;9.20;99.90;;;;;;5050104;28;20057;-60
2023/04/24 08:14:50;;;;;;;16.10;8.60;;;9.30;99.90;;;;;;5048093;28;20041;-60
2023/04/24 08:17:17;;;;;;;12.20;7.57;;;9.30;99.90;;;;;;5049013;28;20052;-60
2023/04/24 08:19:47;;;;;;;15.50;8.75;;;9.30;99.90;;;;;;5048693;28;20043;-60
2023/04/24 08:22:13;;;;;;;12.82;8.02;;;9.30;99.90;;;;;;5050064;28;20045;-60
2023/04/24 08:24:38;;;;;;;16.33;8.70;;;9.30;99.90;;;;;;5065198;28;20051;-61
2023/04/24 08:27:04;;;;;;;11.23;6.57;;;9.40;99.90;;;;;;5048447;28;20087;-59
2023/04/24 08:29:30;;;;;;;16.67;8.25;;;9.40;99.90;;;;;;5049803;28;20049;-60
2023/04/24 08:31:56;;;;;;;9.15;6.32;;;9.40;99.90;;;;;;5048480;28;20394;-60
2023/04/24 08:34:22;;;;;;;10.93;6.13;;;9.40;99.90;;;;;;5048566;28;20029;-61
2023/04/24 08:36:48;;;;;;;12.20;6.63;;;9.50;99.90;;;;;;5050191;28;20041;-60
2023/04/24 08:39:14;;;;;;;14.73;7.75;;;9.50;99.90;;;;;;5049183;28;20060;-60
2023/04/24 08:41:42;;;;;;;10.98;6.68;;;9.50;99.90;;;;;;5031265;28;20049;-60
2023/04/24 08:44:09;;;;;;;12.52;6.35;;;9.60;99.90;;;;;;5048987;28;20048;-59
2023/04/24 08:46:36;;;;;;;16.73;6.50;;;9.70;99.90;;;;;;5044685;28;20083;-59
2023/04/24 08:49:03;;;;;;;13.50;6.45;;;9.70;99.90;;;;;;5050492;28;20126;-59
2023/04/24 08:51:30;;;;;;;10.95;5.68;;;9.70;99.90;;;;;;5067111;28;20079;-59
2023/04/24 08:53:57;;;;;;;9.00;5.43;;;9.60;99.90;;;;;;5052628;28;20041;-59
2023/04/24 08:56:23;;;;;;;9.85;6.20;;;9.60;99.90;;;;;;5066701;28;20041;-59
2023/04/24 08:58:53;;;;;;;14.45;5.80;;;9.70;99.90;;;;;;5051577;28;20041;-59
2023/04/24 09:01:20;;;;;;;18.60;5.82;;;9.70;99.90;;;;;;5018755;28;20073;-60
2023/04/24 09:03:48;;;;;;;10.52;5.57;;;9.80;99.90;;;;;;5051640;28;20065;-60
2023/04/24 09:06:15;;;;;;;11.20;4.25;;;9.80;99.90;;;;;;5067799;28;20043;-59
2023/04/24 09:08:43;;;;;;;13.00;5.30;;;9.80;99.90;;;;;;5010712;28;1155216;-59
2023/04/24 09:11:10;;;;;;;10.00;4.40;;;9.80;99.90;;;;;;5051767;28;20311;-59
2023/04/24 09:13:37;;;;;;;10.68;5.00;;;9.90;99.90;;;;;;5031584;28;20076;-59
2023/04/24 09:16:03;;;;;;;10.10;3.97;;;9.90;99.90;;;;;;5036749;28;20619;-59
2023/04/24 09:18:28;;;;;;;9.20;4.00;;;9.90;99.90;;;;;;5050992;28;20119;-59
2023/04/24 09:21:08;;;;;;;7.63;3.55;;;10.00;99.90;;;;;;5035150;28;20041;-59
2023/04/24 09:23:34;;;;;;;9.50;3.20;;;10.10;99.90;;;;;;5067429;28;20049;-59
2023/04/24 09:26:05;;;;;;;8.07;2.95;;;10.10;99.90;;;;;;5068632;28;20037;-59
2023/04/24 09:28:34;;;;;;;9.80;3.20;;;10.20;99.90;;;;;;5067951;28;20126;-59
2023/04/24 09:31:17;;;;;;;9.90;3.05;;;10.20;99.90;;;;;;5051232;28;20049;-59
2023/04/24 09:34:00;;;;;;;10.02;3.60;;;10.20;99.90;;;;;;5068068;28;20045;-59
2023/04/24 09:36:32;;;;;;;10.50;3.40;;;10.30;99.90;;;;;;5068105;28;20106;-59
2023/04/24 09:39:02;;;;;;;10.20;3.78;;;10.30;99.90;;;;;;5067409;28;20033;-59
2023/04/24 09:41:31;;;;;;;9.25;3.78;;;10.30;99.90;;;;;;5067502;28;20041;-59
2023/04/24 09:44:01;;;;;;;11.18;3.65;;;10.30;99.90;;;;;;5052848;28;20037;-59
2023/04/24 09:46:33;;;;;;;8.35;3.05;;;10.30;99.90;;;;;;5066685;28;20459;-59
2023/04/24 09:49:12;;;;;;;8.25;2.70;;;10.30;99.90;;;;;;5068215;28;20068;-59
2023/04/24 09:51:43;;;;;;;10.52;3.15;;;10.20;99.90;;;;;;5051412;28;20048;-59
2023/04/24 09:54:22;;;;;;;8.55;2.92;;;10.30;99.90;;;;;;5068172;28;20041;-59
2023/04/24 09:56:50;;;;;;;10.85;3.38;;;10.30;99.90;;;;;;5052600;28;20136;-59
2023/04/24 09:59:17;;;;;;;12.80;3.17;;;10.40;99.90;;;;;;5067172;28;20041;-59
2023/04/24 10:01:44;;;;;;;7.72;2.80;;;10.40;99.90;;;;;;5052343;28;20045;-59
2023/04/24 10:04:24;;;;;;;6.72;2.28;;;10.40;99.90;;;;;;5034539;28;20548;-59
2023/04/24 10:06:52;;;;;;;6.65;2.72;;;10.50;99.90;;;;;;5067544;28;20401;-59
2023/04/24 10:09:19;;;;;;;10.57;2.88;;;10.40;99.90;;;;;;5050487;28;20128;-59
2023/04/24 10:11:47;;;;;;;9.00;3.30;;;10.40;99.90;;;;;;5067605;28;20044;-58
2023/04/24 10:14:20;;;;;;;14.43;2.67;;;10.40;99.90;;;;;;5066967;28;20045;-59
2023/04/24 10:16:47;;;;;;;8.10;2.90;;;10.30;99.90;;;;;;5067150;28;20041;-58
2023/04/24 10:22:54;;;;;;;12.77;4.10;;;10.30;99.90;;;;;;5032419;28;20152;-59
2023/04/24 10:25:21;;;;;;;10.57;3.72;;;10.20;99.90;;;;;;5035678;28;20059;-59
2023/04/24 10:27:49;;;;;;;10.73;2.60;;;10.30;99.90;;;;;;5033842;28;20383;-60
2023/04/24 10:30:15;;;;;;;13.52;3.17;;;10.30;99.90;;;;;;5050324;28;20037;-60
2023/04/24 10:32:41;;;;;;;10.02;2.17;;;10.30;99.90;;;;;;5050377;28;20095;-60
2023/04/24 10:35:08;;;;;;;8.43;2.00;;;10.30;99.90;;;;;;5051644;28;20116;-60
2023/04/24 10:37:57;;;;;;;9.48;2.38;;;10.30;99.90;;;;;;5050011;28;20041;-58
2023/04/24 10:40:43;;;;;;;5.03;1.75;;;10.30;99.90;;;;;;5051429;28;20045;-58
2023/04/24 10:43:11;;;;;;;7.13;2.53;;;10.30;99.90;;;;;;5050879;28;20155;-58
2023/04/24 10:45:38;;;;;;;9.18;2.20;;;10.30;99.90;;;;;;5049590;28;20090;-58
2023/04/24 10:48:10;;;;;;;11.80;2.80;;;10.20;99.90;;;;;;5051373;28;20077;-58
2023/04/24 10:50:42;;;;;;;9.32;2.70;;;10.20;99.90;;;;;;5051279;28;20044;-58
2023/04/24 10:53:19;;;;;;;10.50;3.15;;;10.20;99.90;;;;;;5050842;28;20037;-58
2023/04/24 10:56:06;;;;;;;8.25;2.72;;;10.10;99.90;;;;;;5051084;28;20493;-58
2023/04/24 10:58:44;;;;;;;12.18;3.88;;;10.10;99.90;;;;;;5049682;28;20432;-58
2023/04/24 11:01:32;;;;;;;9.60;2.53;;;10.20;99.90;;;;;;5052174;28;20083;-59
2023/04/24 11:04:02;;;;;;;12.07;3.65;;;10.20;99.90;;;;;;5052169;28;20045;-58
2023/04/24 11:06:34;;;;;;;8.93;2.55;;;10.30;99.90;;;;;;5066526;28;20048;-58
2023/04/24 11:09:12;;;;;;;10.77;2.95;;;10.40;99.90;;;;;;5049630;28;20057;-59
2023/04/24 11:11:44;;;;;;;5.93;1.77;;;10.40;99.90;;;;;;5049839;28;20033;-58
2023/04/24 11:14:10;;;;;;;9.70;1.98;;;10.30;99.90;;;;;;5051772;28;20068;-58
2023/04/24 11:16:54;;;;;;;7.45;2.45;;;10.30;99.90;;;;;;5065750;28;20037;-58
2023/04/24 11:19:28;;;;;;;7.88;2.10;;;10.20;99.90;;;;;;5066669;28;20044;-58
2023/04/24 11:22:04;;;;;;;9.45;2.95;;;10.20;99.90;;;;;;5067322;28;20037;-59
2023/04/24 11:24:30;;;;;;;7.70;2.05;;;9.90;99.90;;;;;;5049285;28;20132;-59
2023/04/24 11:27:13;;;;;;;6.05;2.10;;;9.70;99.90;;;;;;5067070;28;20045;-59
2023/04/24 11:29:44;;;;;;;10.25;3.33;;;9.60;99.90;;;;;;5049905;28;20036;-59
2023/04/24 11:32:33;;;;;;;7.80;2.40;;;9.50;99.90;;;;;;5052584;28;20065;-59
2023/04/24 11:35:28;;;;;;;8.15;1.90;;;9.50;99.90;;;;;;5039021;28;20049;-59
2023/04/24 11:37:54;;;;;;;9.85;3.30;;;9.50;99.90;;;;;;5044424;28;20053;-59
2023/04/24 11:40:25;;;;;;;12.45;8.52;;;9.60;99.90;;;;;;5044568;28;20091;-59
2023/04/24 11:42:52;;;;;;;8.73;3.25;;;9.70;99.90;;;;;;5050437;28;20576;-60
2023/04/24 11:45:23;;;;;;;5.55;2.33;;;9.80;99.90;;;;;;5050016;28;20493;-59
2023/04/24 11:47:48;;;;;;;5.28;2.40;;;9.90;99.90;;;;;;5050494;28;20040;-59
2023/04/24 11:50:17;;;;;;;5.65;1.63;;;9.90;99.90;;;;;;5047699;28;20091;-59
2023/04/24 11:52:45;;;;;;;6.65;2.22;;;9.90;99.90;;;;;;5050156;28;20094;-59
2023/04/24 11:55:16;;;;;;;9.13;3.00;;;9.90;99.90;;;;;;5050102;28;20033;-59
2023/04/24 11:57:44;;;;;;;6.80;2.03;;;10.00;99.90;;;;;;5033012;28;20036;-59
2023/04/24 12:00:22;;;;;;;8.07;2.22;;;10.00;99.90;;;;;;5049078;28;20552;-59
2023/04/24 12:02:49;;;;;;;4.40;1.60;;;10.00;99.90;;;;;;5049718;28;20048;-59
2023/04/24 12:05:23;;;;;;;5.70;1.77;;;9.90;99.90;;;;;;5050152;28;20052;-59
2023/04/24 12:07:48;;;;;;;8.65;2.17;;;9.90;99.90;;;;;;5049248;28;20048;-59
2023/04/24 12:10:19;;;;;;;7.60;2.55;;;9.80;99.90;;;;;;5049675;28;20067;-59
2023/04/24 12:12:46;;;;;;;7.93;1.88;;;9.80;99.90;;;;;;5049017;28;20057;-59
2023/04/24 12:15:12;;;;;;;8.07;2.50;;;9.90;99.90;;;;;;5049642;28;20049;-59
2023/04/24 12:17:41;;;;;;;8.32;1.90;;;9.90;99.90;;;;;;5048352;28;20041;-59
2023/04/24 12:20:08;;;;;;;11.73;2.55;;;9.90;99.90;;;;;;5031857;28;20064;-59
2023/04/24 12:22:54;;;;;;;9.82;2.40;;;9.80;99.90;;;;;;5065043;28;20078;-59
2023/04/24 12:25:23;;;;;;;6.82;2.17;;;9.70;99.90;;;;;;5048964;28;20048;-59
2023/04/24 12:28:10;;;;;;;6.38;1.95;;;9.70;99.90;;;;;;5032495;28;20057;-59
2023/04/24 12:30:48;;;;;;;4.90;1.38;;;9.80;99.90;;;;;;5051207;28;20049;-58
2023/04/24 12:33:18;;;;;;;4.32;1.13;;;10.00;99.90;;;;;;5065201;28;20041;-59
2023/04/24 12:35:44;;;;;;;6.97;2.00;;;10.10;99.90;;;;;;5049477;28;20400;-59
2023/04/24 12:38:12;;;;;;;6.93;2.00;;;10.20;99.90;;;;;;5049104;28;20151;-60
2023/04/24 12:40:38;;;;;;;7.43;2.95;;;10.30;99.90;;;;;;5048807;28;20040;-59
2023/04/24 12:43:15;;;;;;;10.57;5.22;;;10.30;99.90;;;;;;5048508;28;20029;-59
2023/04/24 12:45:40;;;;;;;9.05;4.32;;;10.20;99.90;;;;;;5034769;28;20158;-59
2023/04/24 12:48:06;;;;;;;12.10;6.13;;;10.20;99.90;;;;;;5051012;28;20066;-59
2023/04/24 12:50:32;;;;;;;26.42;13.43;;;10.20;99.90;;;;;;5052730;28;20040;-59
2023/04/24 12:52:57;;;;;;;7.35;4.55;;;10.20;99.90;;;;;;5035722;28;20478;-59